createdAt,value
2023-04-23T00:03:24.331Z,52.94
2023-04-23T00:08:29.328Z,54.26
2023-04-23T00:13:33.556Z,55.42
2023-04-23T00:18:36.925Z,56.47
2023-04-23T00:23:40.779Z,57.55
2023-04-23T00:28:43.863Z,58.38
2023-04-23T00:33:46.876Z,59.25
2023-04-23T00:38:50.173Z,59.91
2023-04-23T00:43:53.483Z,60.49
2023-04-23T00:48:57.459Z,68.48
2023-04-23T00:54:00.822Z,69.69
2023-04-23T00:59:04.160Z,63.57
2023-04-23T01:04:09.760Z,55.21
2023-04-23T01:09:13.641Z,52.88
2023-04-23T01:14:17.386Z,53.83
2023-04-23T01:19:20.961Z,55.26
2023-04-23T01:24:24.724Z,56.60
2023-04-23T01:29:29.070Z,58.00
2023-04-23T01:34:33.013Z,59.09
2023-04-23T01:39:37.294Z,59.68
2023-04-23T01:44:41.379Z,60.30
2023-04-23T01:49:44.926Z,68.35
2023-04-23T01:54:48.435Z,70.81
2023-04-23T01:59:51.484Z,65.20
2023-04-23T02:04:55.780Z,56.87
2023-04-23T02:09:59.302Z,54.08
2023-04-23T02:15:02.395Z,55.16
2023-04-23T02:20:09.892Z,56.08
2023-04-23T02:25:18.167Z,58.02
2023-04-23T02:30:23.013Z,58.88
2023-04-23T02:35:26.306Z,60.36
2023-04-23T02:40:29.503Z,69.24
2023-04-23T02:45:32.653Z,70.99
2023-04-23T02:50:35.729Z,65.32
2023-04-23T02:55:38.830Z,61.50
2023-04-23T03:00:42.185Z,55.23
2023-04-23T03:05:45.758Z,53.75
2023-04-23T03:10:49.059Z,55.00
2023-04-23T03:15:54.269Z,56.40
2023-04-23T03:20:57.815Z,57.72
2023-04-23T03:26:01.138Z,59.11
2023-04-23T03:31:04.405Z,60.02
2023-04-23T03:36:07.869Z,67.91
2023-04-23T03:41:11.316Z,71.91
2023-04-23T03:46:14.470Z,67.44
2023-04-23T03:51:17.500Z,63.46
2023-04-23T03:56:21.654Z,55.99
2023-04-23T04:01:24.732Z,53.64
2023-04-23T04:06:27.945Z,54.73
2023-04-23T04:11:31.668Z,56.23
2023-04-23T04:16:34.918Z,57.23
2023-04-23T04:21:38.226Z,58.49
2023-04-23T04:26:42.263Z,60.04
2023-04-23T04:31:45.347Z,69.17
2023-04-23T04:36:48.421Z,70.52
2023-04-23T04:41:51.430Z,65.11
2023-04-23T04:46:54.646Z,60.99
2023-04-23T04:51:57.840Z,53.80
2023-04-23T04:57:02.593Z,51.38
2023-04-23T05:02:05.878Z,53.02
2023-04-23T05:07:09.113Z,54.71
2023-04-23T05:12:12.473Z,55.37
2023-04-23T05:17:15.937Z,57.97
2023-04-23T05:22:19.050Z,58.75
2023-04-23T05:27:22.252Z,59.39
2023-04-23T05:32:26.420Z,58.97
2023-04-23T05:37:31.213Z,59.61
2023-04-23T05:42:37.326Z,59.19
2023-04-23T05:47:40.739Z,58.88
2023-04-23T05:52:43.917Z,59.45
2023-04-23T05:57:47.157Z,59.17
2023-04-23T06:02:50.868Z,58.93
2023-04-23T06:07:54.693Z,58.62
2023-04-23T06:12:57.889Z,58.33
2023-04-23T06:18:01.133Z,58.03
2023-04-23T06:23:04.329Z,57.80
2023-04-23T06:28:07.495Z,57.24
2023-04-23T06:33:11.115Z,56.41
2023-04-23T06:38:14.325Z,55.67
2023-04-23T06:43:17.433Z,54.89
2023-04-23T06:48:22.417Z,53.84
2023-04-23T06:53:25.706Z,52.80
2023-04-23T06:58:32.356Z,52.15
2023-04-23T07:03:36.738Z,51.53
2023-04-23T07:08:40.493Z,50.59
2023-04-23T07:13:43.671Z,50.21
2023-04-23T07:18:46.770Z,49.55
2023-04-23T07:23:49.987Z,48.93
2023-04-23T07:28:53.810Z,48.28
2023-04-23T07:33:57.217Z,47.61
2023-04-23T07:39:00.441Z,46.91
2023-04-23T07:44:04.559Z,46.23
2023-04-23T07:49:08.282Z,44.96
2023-04-23T07:54:11.825Z,44.15
2023-04-23T07:59:14.907Z,43.49
2023-04-23T08:04:18.274Z,42.05
2023-04-23T08:09:21.544Z,42.24
2023-04-23T08:14:24.671Z,41.42
2023-04-23T08:19:31.847Z,40.87
2023-04-23T08:24:35.040Z,40.50
2023-04-23T08:29:38.250Z,39.91
2023-04-23T08:34:41.465Z,39.74
2023-04-23T08:39:44.656Z,39.05
2023-04-23T08:44:49.201Z,38.17
2023-04-23T08:49:55.958Z,38.15
2023-04-23T08:55:01.867Z,37.83
2023-04-23T09:00:06.643Z,37.52
2023-04-23T09:05:10.958Z,36.82
2023-04-23T09:10:17.017Z,35.99
2023-04-23T09:15:22.503Z,35.45
2023-04-23T09:20:25.699Z,35.41
2023-04-23T09:25:29.011Z,35.37
2023-04-23T09:30:32.215Z,35.12
2023-04-23T09:35:36.863Z,35.02
2023-04-23T09:40:40.782Z,34.53
2023-04-23T09:45:50.794Z,33.47
2023-04-23T09:50:56.059Z,33.17
2023-04-23T09:55:59.215Z,33.48
2023-04-23T10:01:09.712Z,32.89
2023-04-23T10:06:25.900Z,32.18
2023-04-23T10:11:41.824Z,32.20
2023-04-23T10:16:49.324Z,31.02
2023-04-23T10:22:12.197Z,30.85
2023-04-23T10:27:33.447Z,31.29
2023-04-23T10:32:49.228Z,30.83
2023-04-23T10:37:53.409Z,30.27
2023-04-23T10:42:57.292Z,30.38
2023-04-23T10:48:00.509Z,30.19
2023-04-23T10:53:04.540Z,29.88
2023-04-23T10:58:08.595Z,29.79
2023-04-23T11:03:32.917Z,29.67
2023-04-23T11:08:36.678Z,29.64
2023-04-23T11:13:54.303Z,28.63
2023-04-23T11:19:12.773Z,28.64
2023-04-23T11:24:16.103Z,28.57
2023-04-23T11:29:26.346Z,28.38
2023-04-23T11:34:29.814Z,28.23
2023-04-23T11:39:33.108Z,28.18
2023-04-23T11:44:39.753Z,28.26
2023-04-23T11:49:45.031Z,28.16
2023-04-23T11:54:48.675Z,27.51
2023-04-23T11:59:54.131Z,27.70
2023-04-23T12:04:57.201Z,27.61
2023-04-23T12:10:00.959Z,27.78
2023-04-23T12:15:08.533Z,27.36
2023-04-23T12:20:19.559Z,27.13
2023-04-23T12:25:24.247Z,27.50
2023-04-23T12:30:32.787Z,26.75
2023-04-23T12:35:50.583Z,26.16
2023-04-23T12:40:56.745Z,27.22
2023-04-23T12:45:59.966Z,26.43
2023-04-23T12:51:04.925Z,26.64
2023-04-23T12:56:07.966Z,26.17
2023-04-23T13:01:12.946Z,26.00
2023-04-23T13:06:16.513Z,26.15
2023-04-23T13:11:19.611Z,25.64
2023-04-23T13:16:22.861Z,25.69
2023-04-23T13:21:26.733Z,25.99
2023-04-23T13:26:32.312Z,26.13
2023-04-23T13:31:35.854Z,25.91
2023-04-23T13:36:41.600Z,25.46
2023-04-23T13:41:47.836Z,25.57
2023-04-23T13:46:54.858Z,25.30
2023-04-23T13:52:01.358Z,25.15
2023-04-23T13:57:04.705Z,25.38
2023-04-23T14:02:07.946Z,25.27
2023-04-23T14:07:11.591Z,25.24
2023-04-23T14:12:14.811Z,25.12
2023-04-23T14:17:18.002Z,25.07
2023-04-23T14:22:21.109Z,25.88
2023-04-23T14:27:24.314Z,26.32
2023-04-23T14:32:27.588Z,26.30
2023-04-23T14:37:30.869Z,25.81
2023-04-23T14:42:34.044Z,25.84
2023-04-23T14:47:37.326Z,26.38
2023-04-23T14:52:40.578Z,26.37
2023-04-23T14:57:44.198Z,26.51
2023-04-23T15:09:55.633Z,25.99
2023-04-23T15:14:58.841Z,26.34
2023-04-23T15:20:02.205Z,26.32
2023-04-23T15:25:06.905Z,26.78
2023-04-23T15:30:10.987Z,26.49
2023-04-23T15:35:14.139Z,26.76
2023-04-23T15:40:18.182Z,26.29
2023-04-23T15:45:21.378Z,26.48
2023-04-23T15:50:26.947Z,27.08
2023-04-23T15:55:30.887Z,26.84
2023-04-23T16:00:34.485Z,26.58
2023-04-23T16:05:37.692Z,27.06
2023-04-23T16:10:42.856Z,27.18
2023-04-23T16:15:46.269Z,27.19
2023-04-23T16:20:49.570Z,27.35
2023-04-23T16:25:53.198Z,27.37
2023-04-23T16:30:56.922Z,27.60
2023-04-23T16:36:00.126Z,27.57
2023-04-23T16:41:03.648Z,27.78
2023-04-23T16:46:06.909Z,27.87
2023-04-23T16:51:10.797Z,27.90
2023-04-23T16:56:13.989Z,28.21
2023-04-23T17:01:18.246Z,28.65
2023-04-23T17:06:30.813Z,29.18
2023-04-23T17:11:33.942Z,29.80
2023-04-23T17:16:37.113Z,30.09
2023-04-23T17:21:40.681Z,30.69
2023-04-23T17:26:43.993Z,31.14
2023-04-23T17:31:47.243Z,31.80
2023-04-23T17:36:51.118Z,32.62
2023-04-23T17:41:56.370Z,32.95
2023-04-23T17:46:59.782Z,33.19
2023-04-23T17:52:03.721Z,33.61
2023-04-23T17:57:10.022Z,33.87
2023-04-23T18:02:13.303Z,34.33
2023-04-23T18:07:16.740Z,35.02
2023-04-23T18:12:20.030Z,35.30
2023-04-23T18:17:25.309Z,35.83
2023-04-23T18:22:28.617Z,36.49
2023-04-23T18:27:34.011Z,36.91
2023-04-23T18:32:47.229Z,37.38
2023-04-23T18:37:59.510Z,37.64
2023-04-23T18:43:03.051Z,38.79
2023-04-23T18:48:35.364Z,38.40
2023-04-23T18:53:39.280Z,38.90
2023-04-23T18:58:42.585Z,39.11
2023-04-23T19:03:45.967Z,39.62
2023-04-23T19:08:49.415Z,40.38
2023-04-23T19:13:53.117Z,40.80
2023-04-23T19:18:56.525Z,41.26
2023-04-23T19:23:59.944Z,42.05
2023-04-23T19:29:03.859Z,42.79
2023-04-23T19:34:06.981Z,43.21
2023-04-23T19:39:10.906Z,43.14
2023-04-23T19:44:14.119Z,44.07
2023-04-23T19:49:17.411Z,44.73
2023-04-23T19:54:21.777Z,45.26
2023-04-23T19:59:27.631Z,46.21
2023-04-23T20:04:31.152Z,46.51
2023-04-23T20:09:35.891Z,46.80
2023-04-23T20:14:39.092Z,47.18
2023-04-23T20:19:45.066Z,48.04
2023-04-23T20:24:49.307Z,48.33
2023-04-23T20:29:52.706Z,48.77
2023-04-23T20:34:56.532Z,48.98
2023-04-23T20:40:00.464Z,49.17
2023-04-23T20:45:04.420Z,49.90
2023-04-23T20:50:08.638Z,50.27
2023-04-23T20:55:11.942Z,50.19
2023-04-23T21:00:16.156Z,50.59
2023-04-23T21:05:19.695Z,51.01
2023-04-23T21:10:23.091Z,51.47
2023-04-23T21:15:26.508Z,51.42
2023-04-23T21:20:30.681Z,51.71
2023-04-23T21:25:34.908Z,51.82
2023-04-23T21:30:53.098Z,51.51
2023-04-23T21:35:56.337Z,51.35
2023-04-23T21:41:01.535Z,51.47
2023-04-23T21:46:04.900Z,51.64
2023-04-23T21:51:08.107Z,51.91
2023-04-23T21:56:11.526Z,51.86
2023-04-23T22:01:14.658Z,51.67
2023-04-23T22:06:18.546Z,52.18
2023-04-23T22:11:21.974Z,52.17
2023-04-23T22:16:28.581Z,52.44
2023-04-23T22:21:33.126Z,52.99
2023-04-23T22:26:36.824Z,53.22
2023-04-23T22:31:40.254Z,53.46
2023-04-23T22:36:43.572Z,54.08
2023-04-23T22:41:46.962Z,54.32
2023-04-23T22:46:50.582Z,54.62
2023-04-23T22:51:53.992Z,54.89
2023-04-23T22:56:57.195Z,54.78
2023-04-23T23:02:00.446Z,55.19
2023-04-23T23:07:05.056Z,55.56
2023-04-23T23:12:08.572Z,55.78
2023-04-23T23:17:11.777Z,56.12
2023-04-23T23:22:15.114Z,56.47
2023-04-23T23:27:18.298Z,56.03
2023-04-23T23:32:21.444Z,56.14
2023-04-23T23:37:24.857Z,56.48
2023-04-23T23:42:28.042Z,57.11
2023-04-23T23:47:31.608Z,57.27
2023-04-23T23:52:35.053Z,57.68
2023-04-23T23:57:38.272Z,57.72
